This is the latest recevied weather packets stored in our database for station/object Riedlingn. If no packets are shown the sender has not sent any weather packets the latest 10 day(s).
| Time | Temp. | Humidity | Pressure | Rain* | Wind** | Luminosity | Snow |
|---|---|---|---|---|---|---|---|
| 1777795332 | 15° C | 67% | 1020.7 hPa | 0 mm | - | - | - |
| 1777793531 | 12.22° C | 77% | 1020.8 hPa | 0 mm | - | - | - |
| 1777791731 | 11.11° C | 81% | 1020.9 hPa | 0 mm | - | - | - |
| 1777789931 | 9.44° C | 84% | 1020.9 hPa | 0 mm | - | - | - |
| 1777788131 | 9.44° C | 84% | 1020.9 hPa | 0 mm | - | - | - |
| 1777786331 | 7.78° C | 91% | 1020.9 hPa | 0 mm | - | - | - |
| 1777784533 | 6.11° C | 92% | 1020.8 hPa | 0 mm | - | - | - |
| 1777782731 | 5.56° C | 91% | 1020.8 hPa | 0 mm | - | - | - |
| 1777780930 | 5.56° C | 90% | 1020.9 hPa | 0 mm | - | - | - |
| 1777779131 | 5.56° C | 90% | 1020.8 hPa | 0 mm | - | - | - |
| 1777777331 | 6.11° C | 89% | 1021 hPa | 0 mm | - | - | - |
| 1777775531 | 6.67° C | 88% | 1020.9 hPa | 0 mm | - | - | - |
| 1777773731 | 7.22° C | 87% | 1021.2 hPa | 0 mm | - | - | - |
| 1777771931 | 7.78° C | 86% | 1021.1 hPa | 0 mm | - | - | - |
| 1777770132 | 7.78° C | 85% | 1021.3 hPa | 0 mm | - | - | - |
| 1777768329 | 8.33° C | 84% | 1021.3 hPa | 0 mm | - | - | - |
| 1777766530 | 8.89° C | 82% | 1021.7 hPa | 0 mm | - | - | - |
| 1777764730 | 10° C | 79% | 1021.6 hPa | 0 mm | - | - | - |
| 1777762930 | 10° C | 78% | 1021.7 hPa | 0 mm | - | - | - |
| 1777761131 | 10° C | 78% | 1021.9 hPa | 0 mm | - | - | - |
| 1777757530 | 12.78° C | 69% | 1021.8 hPa | 0 mm | - | - | - |
| 1777755729 | 14.44° C | 62% | 1021.8 hPa | 0 mm | - | - | - |
| 1777753930 | 15.56° C | 58% | 1022 hPa | 0 mm | - | - | - |
| 1777752130 | 17.22° C | 53% | 1022 hPa | 0 mm | - | - | - |
| 1777750335 | 18.33° C | 48% | 1022 hPa | 0 mm | - | - | - |
* Rain since midnight (hover to see other rain measurements)
** Current wind speed in m/s (hover to see current wind gust speed)